Heat Advisory
until 8:00 PM EDT
| Temperature (°F) | Max | Average | Min |
|---|---|---|---|
| Max Temperature | 97 | 90.74 | 80 |
| Avg Temperature | 88 | 80.47 | 76.11 |
| Min Temperature | 79 | 74 | 70 |
| Dew Point (°F) | Max | Average | Min |
|---|---|---|---|
| Dew Point | 77 | 70.52 | 58 |
| Precipitation (in) | Max | Average | Min | Sum |
|---|---|---|---|---|
| Precipitation | 3.47 | 0.45 | 0.00 | 14.00 |
| Snowdepth | 0.00 | 0.00 | 0.00 | 0.00 |
| Wind (mph) | Max | Average | Min |
|---|---|---|---|
| Wind | 29 | 6.74 | 0 |
| Gust Wind | 45 | 1.86 | 0 |
| Sea Level Pressure (in) | Max | Average | Min |
|---|---|---|---|
| Sea Level Pressure | 29.13 | 28.97 | 28.79 |
| Date | Temperature (°F) | Dew Point (°F) | Humidity (%) | Wind Speed (mph) | Pressure (in) | Precipitation (in) | ||||||||||
|---|---|---|---|---|---|---|---|---|---|---|---|---|---|---|---|---|
| Max | Avg | Min | Max | Avg | Min | Max | Avg | Min | Max | Avg | Min | Max | Avg | Min | ||
| 7/31/2024 | 93 | 79.7 | 73 | 77 | 72.7 | 70 | 93 | 80.0 | 59 | 13 | 6.7 | 3 | 29.0 | 29.0 | 29.0 | 0.65 |
| 7/30/2024 | 92 | 79.5 | 71 | 77 | 72.4 | 68 | 93 | 80.0 | 57 | 29 | 8.3 | 5 | 29.0 | 29.0 | 28.9 | 0.65 |
| 7/29/2024 | 87 | 76.7 | 72 | 76 | 72.5 | 69 | 96 | 87.1 | 67 | 25 | 5.4 | 0 | 29.0 | 29.0 | 28.9 | 3.47 |
| 7/28/2024 | 80 | 76.3 | 73 | 75 | 72.7 | 71 | 94 | 88.7 | 79 | 13 | 6.3 | 0 | 29.1 | 29.1 | 29.0 | 0.00 |
| 7/27/2024 | 85 | 77.9 | 73 | 73 | 70.8 | 69 | 91 | 79.1 | 63 | 9 | 7.1 | 3 | 29.1 | 29.0 | 29.0 | 0.39 |
| 7/26/2024 | 91 | 78.2 | 73 | 74 | 71.6 | 69 | 94 | 81.1 | 57 | 22 | 6.4 | 0 | 29.0 | 29.0 | 28.9 | 0.75 |
| 7/25/2024 | 87 | 77.9 | 74 | 75 | 72.4 | 71 | 94 | 83.7 | 63 | 22 | 7.3 | 3 | 29.1 | 29.1 | 29.0 | 1.52 |
| 7/24/2024 | 88 | 76.2 | 71 | 73 | 71.5 | 70 | 100 | 86.3 | 59 | 10 | 3.8 | 0 | 29.1 | 29.1 | 29.1 | 1.10 |
| 7/23/2024 | 90 | 78.7 | 75 | 74 | 72.1 | 70 | 94 | 80.9 | 59 | 20 | 8.5 | 0 | 29.1 | 29.0 | 29.0 | 0.00 |
| 7/22/2024 | 87 | 77.9 | 72 | 72 | 69.7 | 68 | 91 | 77.2 | 55 | 12 | 5.7 | 0 | 29.0 | 29.0 | 28.9 | 0.03 |
| 7/21/2024 | 89 | 77.0 | 72 | 74 | 72.0 | 69 | 94 | 85.1 | 59 | 13 | 7.4 | 3 | 29.0 | 29.0 | 28.9 | 0.01 |
| 7/20/2024 | 83 | 76.1 | 70 | 73 | 71.2 | 68 | 97 | 85.0 | 69 | 9 | 5.2 | 0 | 29.1 | 29.0 | 29.0 | 1.78 |
| 7/19/2024 | 87 | 77.5 | 73 | 72 | 70.1 | 69 | 93 | 78.6 | 57 | 15 | 5.4 | 0 | 29.0 | 29.0 | 28.9 | 0.09 |
| 7/18/2024 | 92 | 79.7 | 74 | 72 | 70.3 | 66 | 91 | 74.0 | 53 | 18 | 7.4 | 0 | 29.0 | 28.9 | 28.9 | 0.06 |
| 7/17/2024 | 92 | 81.2 | 75 | 74 | 70.5 | 69 | 85 | 71.2 | 50 | 16 | 9.0 | 5 | 29.0 | 28.9 | 28.9 | 0.00 |
| 7/16/2024 | 91 | 82.4 | 74 | 72 | 70.4 | 69 | 91 | 68.3 | 50 | 21 | 8.0 | 3 | 29.0 | 28.9 | 28.9 | 0.00 |
| 7/15/2024 | 96 | 83.3 | 75 | 73 | 69.0 | 67 | 87 | 63.3 | 41 | 22 | 7.1 | 0 | 29.0 | 29.0 | 28.9 | 0.00 |
| 7/14/2024 | 97 | 88.0 | 77 | 68 | 65.3 | 61 | 71 | 48.3 | 31 | 10 | 5.2 | 0 | 29.1 | 29.0 | 29.0 | 0.00 |
| 7/13/2024 | 97 | 86.8 | 76 | 68 | 64.7 | 61 | 66 | 49.1 | 32 | 8 | 4.2 | 0 | 29.1 | 29.1 | 29.0 | 0.00 |
| 7/12/2024 | 94 | 84.7 | 75 | 67 | 63.2 | 61 | 69 | 49.6 | 34 | 8 | 4.0 | 0 | 29.0 | 29.0 | 28.9 | 0.00 |
| 7/11/2024 | 91 | 80.7 | 70 | 67 | 62.5 | 58 | 78 | 55.8 | 35 | 13 | 6.7 | 3 | 29.0 | 28.9 | 28.9 | 0.00 |
| 7/10/2024 | 88 | 79.4 | 73 | 74 | 68.4 | 64 | 94 | 70.8 | 46 | 15 | 9.9 | 6 | 28.9 | 28.9 | 28.9 | 0.29 |
| 7/9/2024 | 92 | 80.7 | 75 | 76 | 73.7 | 72 | 94 | 80.0 | 55 | 15 | 6.6 | 0 | 29.0 | 28.9 | 28.9 | 0.00 |
| 7/8/2024 | 91 | 79.8 | 74 | 76 | 72.8 | 70 | 91 | 79.7 | 63 | 8 | 5.4 | 0 | 29.0 | 29.0 | 28.9 | 1.75 |
| 7/7/2024 | 90 | 80.7 | 74 | 76 | 73.1 | 70 | 94 | 78.7 | 59 | 22 | 7.2 | 0 | 29.0 | 28.9 | 28.9 | 0.02 |
| 7/6/2024 | 93 | 80.4 | 76 | 76 | 73.6 | 71 | 94 | 80.9 | 54 | 20 | 5.1 | 0 | 28.9 | 28.9 | 28.8 | 1.43 |
| 7/5/2024 | 94 | 82.0 | 76 | 76 | 74.2 | 73 | 94 | 78.0 | 56 | 20 | 6.7 | 0 | 28.9 | 28.9 | 28.8 | 0.01 |
| 7/4/2024 | 97 | 84.1 | 76 | 77 | 73.3 | 70 | 91 | 71.5 | 43 | 20 | 5.3 | 0 | 29.0 | 28.9 | 28.8 | 0.00 |
| 7/3/2024 | 92 | 82.3 | 77 | 73 | 71.5 | 69 | 84 | 70.7 | 47 | 10 | 7.2 | 3 | 29.1 | 29.0 | 29.0 | 0.00 |
| 7/2/2024 | 90 | 82.2 | 76 | 72 | 66.9 | 61 | 77 | 61.0 | 42 | 20 | 12.0 | 6 | 29.1 | 29.0 | 28.9 | 0.00 |
| 7/1/2024 | 97 | 86.9 | 79 | 75 | 71.3 | 66 | 79 | 61.8 | 37 | 14 | 8.3 | 0 | 28.9 | 28.9 | 28.9 | 0.00 |